Terminal Aerodrome Forecast
Issued by NWS

Home | Current Version | Previous Version | Text Only | Print | Product List | Glossary On
Versions: 1 2 3 4 5 6 7 8 9 10 11 12 13 14 15
000
FTUS41 KPBZ 201700
TAFAGC
TAF
KAGC 201722Z 2018/2118 21012G20KT P6SM SCT040 BKN250
     FM210100 20006KT P6SM BKN250
     FM211300 24009KT P6SM VCSH OVC035=

USA.gov is the U.S. government's official web portal to all federal, state and local government web resources and services.